Time;durP1;ratioP1;P1;durP2;ratioP2;P2;SDS_P1;SDS_P2;PMS_P1;PMS_P2;Temp;Humidity;BMP_temperature;BMP_pressure;BME280_temperature;BME280_humidity;BME280_pressure;Samples;Min_cycle;Max_cycle;Signal;HPM_P1;HPM_P2
2024/03/21 00:00:13;;;;;;;8.63;4.95;;;11.90;99.90;;;;;;4956141;28;20038;-83
2024/03/21 00:02:39;;;;;;;9.35;5.07;;;11.90;99.90;;;;;;4974598;28;20062;-83
2024/03/21 00:05:06;;;;;;;8.02;5.15;;;11.80;99.90;;;;;;4955341;28;20068;-82
2024/03/21 00:07:34;;;;;;;11.70;6.80;;;11.80;99.90;;;;;;4987079;28;20037;-82
2024/03/21 00:10:00;;;;;;;10.23;6.07;;;11.50;99.90;;;;;;4991859;28;20034;-82
2024/03/21 00:12:26;;;;;;;13.60;8.63;;;11.50;99.90;;;;;;4960602;28;20034;-82
2024/03/21 00:14:51;;;;;;;9.52;5.18;;;11.30;99.90;;;;;;4971815;28;20447;-82
2024/03/21 00:17:17;;;;;;;9.43;6.30;;;11.10;99.90;;;;;;4986967;28;20058;-81
2024/03/21 00:19:42;;;;;;;11.07;6.95;;;11.10;99.90;;;;;;4972652;28;20034;-82
2024/03/21 00:22:08;;;;;;;6.15;4.75;;;11.20;99.90;;;;;;4972972;28;20034;-82
2024/03/21 00:24:37;;;;;;;10.32;6.63;;;11.10;99.90;;;;;;4988475;28;20041;-81
2024/03/21 00:27:04;;;;;;;9.10;5.68;;;11.00;99.90;;;;;;4956755;28;20499;-82
2024/03/21 00:29:30;;;;;;;15.50;8.05;;;11.00;99.90;;;;;;4969250;28;20031;-82
2024/03/21 00:31:56;;;;;;;9.35;7.38;;;10.80;99.90;;;;;;4990689;28;20037;-82
2024/03/21 00:34:21;;;;;;;8.88;5.22;;;10.70;99.90;;;;;;4958772;28;20884;-82
2024/03/21 00:36:47;;;;;;;11.27;7.20;;;10.70;99.90;;;;;;4969742;28;20415;-81
2024/03/21 00:39:23;;;;;;;9.45;5.72;;;10.80;99.90;;;;;;4954752;28;20888;-82
2024/03/21 00:41:48;;;;;;;7.93;5.65;;;10.70;99.90;;;;;;4988724;28;20042;-82
2024/03/21 00:44:14;;;;;;;8.20;5.40;;;10.80;99.90;;;;;;4972791;28;20037;-82
2024/03/21 00:46:39;;;;;;;12.00;7.05;;;11.10;99.90;;;;;;4958349;28;20808;-82
2024/03/21 00:49:05;;;;;;;14.57;8.90;;;11.00;99.90;;;;;;4955729;28;20118;-82
2024/03/21 00:51:34;;;;;;;16.60;9.00;;;10.80;99.90;;;;;;4956020;28;20491;-82
2024/03/21 00:54:00;;;;;;;10.38;6.63;;;10.50;99.90;;;;;;4984425;28;20121;-82
2024/03/21 00:56:25;;;;;;;19.30;8.07;;;10.50;99.90;;;;;;4973006;28;20529;-82
2024/03/21 00:58:51;;;;;;;12.18;6.00;;;10.50;99.90;;;;;;4986000;28;20071;-82
2024/03/21 01:01:17;;;;;;;6.15;5.45;;;10.60;99.90;;;;;;4987510;28;20037;-81
2024/03/21 01:03:43;;;;;;;7.90;5.88;;;10.70;99.90;;;;;;4969612;28;20098;-82
2024/03/21 01:06:09;;;;;;;11.23;6.65;;;10.60;99.90;;;;;;4953979;28;20038;-81
2024/03/21 01:08:34;;;;;;;6.70;5.13;;;10.70;99.90;;;;;;4975229;28;20034;-81
2024/03/21 01:11:00;;;;;;;7.57;5.22;;;10.70;99.90;;;;;;4991848;28;20031;-83
2024/03/21 01:13:26;;;;;;;8.90;6.60;;;10.70;99.90;;;;;;4995565;28;20573;-82
2024/03/21 01:15:51;;;;;;;11.68;8.00;;;10.70;99.90;;;;;;4991810;28;20077;-82
2024/03/21 01:18:17;;;;;;;11.88;7.30;;;10.70;99.90;;;;;;5008528;28;20030;-82
2024/03/21 01:20:42;;;;;;;8.52;5.03;;;10.60;99.90;;;;;;4996548;28;20026;-82
2024/03/21 01:23:08;;;;;;;14.70;8.43;;;10.70;99.90;;;;;;4995171;28;20098;-81
2024/03/21 01:25:34;;;;;;;15.52;8.48;;;10.90;99.90;;;;;;4994329;28;20744;-82
2024/03/21 01:28:03;;;;;;;6.53;5.10;;;10.70;99.90;;;;;;5005335;28;20034;-82
2024/03/21 01:30:32;;;;;;;7.60;5.10;;;10.70;99.90;;;;;;4982490;28;20388;-82
2024/03/21 01:32:58;;;;;;;16.88;8.93;;;10.70;99.90;;;;;;4988389;28;20033;-81
2024/03/21 01:35:25;;;;;;;9.38;5.65;;;10.80;99.90;;;;;;5015328;28;20034;-82
2024/03/21 01:37:50;;;;;;;12.27;7.53;;;10.80;99.90;;;;;;5014527;28;20109;-81
2024/03/21 01:40:16;;;;;;;10.45;7.72;;;11.00;99.90;;;;;;4988784;28;20581;-82
2024/03/21 01:42:43;;;;;;;10.77;6.57;;;10.90;99.90;;;;;;4989292;28;20030;-82
2024/03/21 01:45:10;;;;;;;7.50;5.70;;;10.80;99.90;;;;;;4990648;28;20057;-80
2024/03/21 01:47:36;;;;;;;13.15;7.53;;;10.90;99.90;;;;;;4991378;28;20084;-82
2024/03/21 01:50:02;;;;;;;11.02;5.72;;;10.90;99.90;;;;;;4986715;28;20038;-82
2024/03/21 01:52:28;;;;;;;13.23;7.15;;;10.90;99.90;;;;;;4971697;28;20579;-82
2024/03/21 01:54:54;;;;;;;7.72;4.68;;;10.90;99.90;;;;;;4986088;28;20373;-81
2024/03/21 01:57:19;;;;;;;11.00;5.82;;;10.90;99.90;;;;;;5010612;28;20037;-81
2024/03/21 01:59:45;;;;;;;8.90;6.60;;;10.90;99.90;;;;;;4975365;28;20037;-82
2024/03/21 02:02:11;;;;;;;5.60;4.75;;;11.00;99.90;;;;;;4992663;28;20025;-80
2024/03/21 02:04:37;;;;;;;11.05;7.32;;;10.90;99.90;;;;;;4995136;28;20046;-82
2024/03/21 02:07:03;;;;;;;8.90;7.30;;;10.90;99.90;;;;;;4976364;28;20046;-81
2024/03/21 02:09:31;;;;;;;12.98;6.47;;;10.90;99.90;;;;;;5002173;28;20491;-81
2024/03/21 02:12:05;;;;;;;19.60;8.70;;;10.90;99.90;;;;;;5010365;28;20133;-81
2024/03/21 02:14:33;;;;;;;9.57;7.20;;;10.80;99.90;;;;;;4993604;28;20253;-81
2024/03/21 02:16:58;;;;;;;13.95;7.40;;;10.90;99.90;;;;;;4992764;28;20056;-82
2024/03/21 02:19:24;;;;;;;6.30;5.07;;;11.00;99.90;;;;;;4995590;28;20041;-80
2024/03/21 02:24:34;;;;;;;11.95;8.40;;;10.80;99.90;;;;;;5007527;28;20061;-81
2024/03/21 02:26:59;;;;;;;8.90;5.63;;;10.80;99.90;;;;;;5011856;28;20034;-81
2024/03/21 02:29:25;;;;;;;11.98;4.95;;;10.80;99.90;;;;;;4987894;28;20030;-82
2024/03/21 02:31:51;;;;;;;8.20;5.53;;;10.80;99.90;;;;;;4993946;28;20030;-82
2024/03/21 02:34:16;;;;;;;15.35;8.57;;;10.80;99.90;;;;;;4995230;28;20037;-81
2024/03/21 02:36:42;;;;;;;7.10;5.03;;;10.90;99.90;;;;;;5009269;28;20041;-81
2024/03/21 02:39:07;;;;;;;11.38;7.80;;;10.90;99.90;;;;;;5009115;28;20117;-81
2024/03/21 02:41:34;;;;;;;14.57;8.82;;;11.00;99.90;;;;;;4985987;28;20042;-81
2024/03/21 02:43:59;;;;;;;15.32;9.40;;;10.90;99.90;;;;;;4972177;28;20598;-82
2024/03/21 02:46:25;;;;;;;9.43;4.82;;;10.80;99.90;;;;;;4957217;28;20037;-82
2024/03/21 02:48:50;;;;;;;8.25;6.28;;;10.80;99.90;;;;;;4992260;28;20038;-81
2024/03/21 02:51:16;;;;;;;9.93;6.78;;;10.70;99.90;;;;;;4957460;28;20035;-81
2024/03/21 02:53:41;;;;;;;19.42;10.88;;;10.90;99.90;;;;;;4984349;28;20117;-82
2024/03/21 02:56:07;;;;;;;7.50;5.72;;;10.80;99.90;;;;;;4954784;28;20026;-82
2024/03/21 02:58:32;;;;;;;18.75;10.75;;;10.70;99.90;;;;;;4985843;28;20038;-81
2024/03/21 03:00:58;;;;;;;17.65;10.15;;;10.60;99.90;;;;;;4971061;28;20039;-80
2024/03/21 03:03:23;;;;;;;19.85;12.90;;;10.60;99.90;;;;;;4986888;28;20549;-80
2024/03/21 03:05:49;;;;;;;16.00;9.68;;;10.70;99.90;;;;;;4962257;28;20054;-80
2024/03/21 03:08:14;;;;;;;13.73;10.02;;;10.70;99.90;;;;;;4954609;28;20166;-80
2024/03/21 03:10:40;;;;;;;14.35;8.88;;;10.70;99.90;;;;;;4988519;28;20041;-80
2024/03/21 03:13:05;;;;;;;10.40;7.80;;;10.70;99.90;;;;;;4971788;28;20034;-81
2024/03/21 03:15:31;;;;;;;29.40;19.48;;;10.70;99.90;;;;;;4968698;28;20109;-80
2024/03/21 03:17:57;;;;;;;19.95;13.75;;;10.70;99.90;;;;;;4973729;28;20030;-81
2024/03/21 03:20:22;;;;;;;29.23;16.77;;;10.70;99.90;;;;;;4988573;28;20030;-80
2024/03/21 03:22:48;;;;;;;31.08;18.80;;;10.70;99.90;;;;;;4970084;28;20030;-81
2024/03/21 03:25:13;;;;;;;26.05;15.45;;;10.70;99.90;;;;;;4972997;28;20453;-81
2024/03/21 03:27:39;;;;;;;10.43;7.65;;;10.70;99.90;;;;;;4983171;28;20037;-81
2024/03/21 03:30:06;;;;;;;18.58;13.32;;;10.80;99.90;;;;;;4987548;28;20527;-80
2024/03/21 03:32:33;;;;;;;21.60;13.52;;;10.60;99.90;;;;;;4953806;28;20031;-81
2024/03/21 03:37:42;;;;;;;15.80;9.63;;;10.60;99.90;;;;;;4970990;28;20792;-81
2024/03/21 03:40:09;;;;;;;11.88;8.25;;;10.70;99.90;;;;;;4967720;28;20038;-79
2024/03/21 03:42:35;;;;;;;8.90;5.88;;;10.70;99.90;;;;;;4987983;28;20042;-81
2024/03/21 03:45:01;;;;;;;12.43;9.85;;;10.80;99.90;;;;;;4990823;28;20518;-81
2024/03/21 03:47:26;;;;;;;15.45;9.40;;;10.70;99.90;;;;;;4984129;28;20034;-81
2024/03/21 03:49:52;;;;;;;14.50;9.25;;;10.70;99.90;;;;;;4951903;28;20082;-80
2024/03/21 03:52:17;;;;;;;13.05;8.55;;;10.60;99.90;;;;;;4985804;28;20084;-80
2024/03/21 03:54:43;;;;;;;11.45;8.93;;;10.50;99.90;;;;;;4975220;28;20084;-81
2024/03/21 03:57:09;;;;;;;14.80;7.40;;;10.70;99.90;;;;;;4988929;28;20031;-81
2024/03/21 03:59:34;;;;;;;17.15;6.72;;;10.70;99.90;;;;;;4986269;28;20035;-81
2024/03/21 04:02:00;;;;;;;17.27;10.05;;;10.70;99.90;;;;;;4955770;28;20034;-81
2024/03/21 04:04:25;;;;;;;20.38;9.45;;;10.70;99.90;;;;;;4971388;28;20407;-81
2024/03/21 04:06:53;;;;;;;17.10;11.60;;;10.70;99.90;;;;;;4987159;28;20049;-79
2024/03/21 04:09:19;;;;;;;17.65;12.77;;;10.50;99.90;;;;;;4986796;28;20035;-81
2024/03/21 04:11:44;;;;;;;11.55;7.25;;;10.40;99.90;;;;;;4967067;28;20038;-80
2024/03/21 04:14:10;;;;;;;13.35;9.05;;;10.50;99.90;;;;;;4985723;28;20111;-79
2024/03/21 04:16:35;;;;;;;15.00;10.18;;;10.60;99.90;;;;;;4970848;28;20101;-81
2024/03/21 04:19:01;;;;;;;21.60;14.95;;;10.60;99.90;;;;;;4971286;28;20042;-81
2024/03/21 04:21:26;;;;;;;17.88;10.20;;;10.70;99.90;;;;;;4975156;28;20065;-81
2024/03/21 04:23:52;;;;;;;22.48;15.02;;;10.60;99.90;;;;;;4956595;28;20034;-80
2024/03/21 04:26:17;;;;;;;10.07;6.97;;;10.60;99.90;;;;;;4985368;28;20041;-81
2024/03/21 04:28:44;;;;;;;18.05;12.93;;;10.70;99.90;;;;;;4968522;28;20113;-80
2024/03/21 04:31:10;;;;;;;19.45;11.27;;;10.80;99.90;;;;;;4974453;28;20034;-80
2024/03/21 04:33:35;;;;;;;17.33;12.15;;;10.90;99.90;;;;;;4987281;28;20044;-81
2024/03/21 04:36:01;;;;;;;21.58;13.10;;;10.80;99.90;;;;;;4968442;28;20054;-81
2024/03/21 04:38:27;;;;;;;26.67;15.10;;;10.90;99.90;;;;;;4970388;28;20407;-82
2024/03/21 04:40:52;;;;;;;33.13;20.08;;;10.60;99.90;;;;;;4969180;28;20118;-80
2024/03/21 04:43:18;;;;;;;27.15;15.55;;;10.70;99.90;;;;;;4982742;28;20519;-81
2024/03/21 04:45:43;;;;;;;17.17;11.02;;;10.70;99.90;;;;;;4954611;28;20030;-81
2024/03/21 04:48:09;;;;;;;29.77;18.17;;;10.70;99.90;;;;;;4958854;28;20037;-81
2024/03/21 04:50:34;;;;;;;33.88;18.38;;;10.70;99.90;;;;;;4985745;28;20041;-81
2024/03/21 04:53:00;;;;;;;20.92;12.02;;;10.60;99.90;;;;;;4972624;28;20045;-81
2024/03/21 04:55:26;;;;;;;34.55;18.88;;;10.60;99.90;;;;;;4952548;28;20031;-81
2024/03/21 04:57:51;;;;;;;30.67;19.10;;;10.50;99.90;;;;;;4967131;28;20037;-81
2024/03/21 05:00:17;;;;;;;22.38;11.93;;;10.60;99.90;;;;;;4947575;28;20030;-80
2024/03/21 05:02:42;;;;;;;36.85;22.17;;;10.50;99.90;;;;;;4970507;28;20053;-80
2024/03/21 05:05:09;;;;;;;41.13;23.52;;;10.40;99.90;;;;;;4952933;28;20049;-81
2024/03/21 05:07:34;;;;;;;31.15;18.55;;;10.20;99.90;;;;;;4987737;28;20038;-81
2024/03/21 05:10:00;;;;;;;44.15;25.02;;;10.30;99.90;;;;;;4972584;28;20109;-81
2024/03/21 05:12:25;;;;;;;42.53;23.75;;;10.30;99.90;;;;;;4990074;28;20026;-80
2024/03/21 05:14:51;;;;;;;46.47;24.02;;;10.20;99.90;;;;;;4967902;28;20056;-80
2024/03/21 05:17:23;;;;;;;38.15;22.02;;;10.20;99.90;;;;;;4988582;28;20041;-80
2024/03/21 05:19:48;;;;;;;41.47;24.88;;;10.10;99.90;;;;;;4951152;28;20034;-81
2024/03/21 05:22:15;;;;;;;42.38;23.17;;;10.20;99.90;;;;;;4990240;28;20091;-82
2024/03/21 05:24:41;;;;;;;45.17;26.42;;;10.20;99.90;;;;;;4988404;28;20041;-81
2024/03/21 05:27:06;;;;;;;30.30;18.08;;;10.10;99.90;;;;;;4984490;28;20520;-79
2024/03/21 05:29:35;;;;;;;27.80;16.48;;;10.20;99.90;;;;;;4984136;28;20046;-81
2024/03/21 05:32:00;;;;;;;23.35;14.07;;;10.00;99.90;;;;;;4958744;28;20034;-81
2024/03/21 05:34:27;;;;;;;34.03;20.08;;;10.10;99.90;;;;;;4972747;28;20026;-80
2024/03/21 05:36:52;;;;;;;34.63;20.92;;;10.00;99.90;;;;;;4974539;28;20030;-81
2024/03/21 05:39:19;;;;;;;40.20;22.33;;;10.00;99.90;;;;;;4959012;28;20038;-81
2024/03/21 05:41:44;;;;;;;41.53;22.08;;;10.00;99.90;;;;;;4970942;28;20038;-80
2024/03/21 05:44:10;;;;;;;27.25;15.30;;;10.00;99.90;;;;;;4959483;28;20126;-81
2024/03/21 05:46:35;;;;;;;31.85;17.75;;;10.00;99.90;;;;;;4989255;28;20073;-81
2024/03/21 05:49:01;;;;;;;30.30;16.67;;;10.10;99.90;;;;;;4992125;28;20772;-82
2024/03/21 05:51:26;;;;;;;23.00;13.48;;;10.20;99.90;;;;;;4974874;28;20104;-80
2024/03/21 05:53:52;;;;;;;34.03;18.45;;;10.30;99.90;;;;;;4971832;28;20118;-81
2024/03/21 05:56:18;;;;;;;32.80;18.98;;;10.30;99.90;;;;;;4974376;28;20037;-79
2024/03/21 05:58:43;;;;;;;43.80;22.25;;;10.20;99.90;;;;;;4974203;28;20042;-81
2024/03/21 06:03:40;;;;;;;42.55;22.92;;;10.20;99.90;;;;;;4989322;28;20046;-84
2024/03/21 06:06:05;;;;;;;43.03;22.67;;;10.20;99.90;;;;;;4974887;28;20476;-82
2024/03/21 06:08:31;;;;;;;30.42;19.23;;;10.30;99.90;;;;;;4966819;28;20499;-81
2024/03/21 06:10:57;;;;;;;44.05;23.60;;;10.20;99.90;;;;;;4987384;28;20026;-81
2024/03/21 06:13:22;;;;;;;29.42;17.60;;;10.30;99.90;;;;;;4978202;28;20556;-81
2024/03/21 06:15:48;;;;;;;39.22;24.27;;;10.30;99.90;;;;;;4957581;28;20109;-81
2024/03/21 06:18:16;;;;;;;38.05;21.75;;;10.40;99.90;;;;;;4971076;28;20061;-80
2024/03/21 06:20:42;;;;;;;43.78;24.13;;;10.40;99.90;;;;;;4955380;28;20042;-80
2024/03/21 06:23:07;;;;;;;45.58;27.30;;;10.40;99.90;;;;;;4958227;28;20599;-81
2024/03/21 06:25:33;;;;;;;50.58;29.20;;;10.50;99.90;;;;;;4969694;28;20057;-81
2024/03/21 06:27:59;;;;;;;42.65;25.77;;;10.50;99.90;;;;;;4959054;28;20484;-79
2024/03/21 06:30:24;;;;;;;47.70;28.13;;;10.50;99.90;;;;;;4957449;28;20527;-81
2024/03/21 06:32:50;;;;;;;44.53;28.58;;;10.60;99.90;;;;;;4957973;28;20042;-81
2024/03/21 06:35:15;;;;;;;45.80;27.67;;;10.70;99.90;;;;;;4973442;28;20096;-82
2024/03/21 06:37:41;;;;;;;45.95;25.88;;;10.60;99.90;;;;;;4973172;28;20035;-81
2024/03/21 06:40:08;;;;;;;49.25;27.83;;;10.70;99.90;;;;;;4973008;28;20042;-82
2024/03/21 06:42:33;;;;;;;45.58;28.77;;;10.80;99.90;;;;;;4972602;28;20053;-83
2024/03/21 06:45:00;;;;;;;40.65;26.17;;;10.90;99.90;;;;;;4989318;28;20038;-81
2024/03/21 06:47:25;;;;;;;39.40;25.05;;;11.10;99.90;;;;;;4973186;28;20034;-81
2024/03/21 06:49:53;;;;;;;38.78;24.90;;;11.00;99.90;;;;;;4987914;28;20380;-81
2024/03/21 06:52:19;;;;;;;39.10;25.17;;;11.00;99.90;;;;;;4972941;28;20091;-82
2024/03/21 06:54:45;;;;;;;34.45;23.23;;;11.10;99.90;;;;;;4955561;28;20036;-82
2024/03/21 06:57:10;;;;;;;32.72;22.08;;;11.10;99.90;;;;;;4984681;28;20404;-83
2024/03/21 06:59:37;;;;;;;31.42;19.80;;;11.10;99.90;;;;;;4968744;28;20061;-82
2024/03/21 07:02:04;;;;;;;26.65;15.95;;;11.00;99.90;;;;;;4986920;28;20065;-82
2024/03/21 07:04:30;;;;;;;32.95;20.70;;;11.10;99.90;;;;;;4964276;28;20042;-82
2024/03/21 07:06:55;;;;;;;29.15;20.02;;;11.20;99.90;;;;;;4978082;28;20105;-81
2024/03/21 07:09:21;;;;;;;31.00;20.63;;;11.20;99.90;;;;;;4988629;28;20477;-82
2024/03/21 07:11:46;;;;;;;26.75;17.80;;;11.30;99.90;;;;;;5004893;28;20130;-83
2024/03/21 07:14:12;;;;;;;31.00;19.75;;;11.20;99.90;;;;;;4983364;28;20034;-82
2024/03/21 07:16:38;;;;;;;29.17;19.73;;;11.30;99.90;;;;;;4971237;28;20053;-83
2024/03/21 07:19:09;;;;;;;27.38;17.42;;;11.40;99.90;;;;;;4958858;28;20069;-83
2024/03/21 07:21:35;;;;;;;26.90;17.05;;;11.30;99.90;;;;;;4987566;28;20054;-84
2024/03/21 07:24:00;;;;;;;27.00;17.02;;;11.30;99.90;;;;;;4970182;28;20038;-82
2024/03/21 07:26:26;;;;;;;27.52;18.88;;;11.40;99.90;;;;;;4992693;28;20113;-81
2024/03/21 07:28:52;;;;;;;22.15;15.13;;;11.40;99.90;;;;;;4986516;28;20058;-82
2024/03/21 07:31:20;;;;;;;23.05;14.65;;;11.40;99.90;;;;;;4986806;28;20047;-82
2024/03/21 07:33:51;;;;;;;23.75;15.05;;;11.50;99.90;;;;;;4971810;28;20041;-82
2024/03/21 07:36:17;;;;;;;16.40;11.35;;;11.60;99.90;;;;;;4983219;28;20076;-81
2024/03/21 07:38:43;;;;;;;22.48;13.75;;;11.70;99.90;;;;;;4982091;28;20038;-82
2024/03/21 07:41:08;;;;;;;24.55;14.90;;;11.70;99.90;;;;;;4968326;28;20400;-83
2024/03/21 07:43:34;;;;;;;18.75;13.32;;;11.70;99.90;;;;;;4984528;28;20023;-81
2024/03/21 07:46:00;;;;;;;20.00;15.10;;;11.70;99.90;;;;;;4983432;28;20046;-82
2024/03/21 07:48:25;;;;;;;18.33;12.35;;;11.90;99.90;;;;;;4964266;28;20061;-81
2024/03/21 07:50:51;;;;;;;17.02;10.82;;;11.70;99.90;;;;;;4988908;28;20536;-82
2024/03/21 07:53:16;;;;;;;16.75;9.80;;;11.70;99.90;;;;;;4954245;28;20034;-83
2024/03/21 07:55:43;;;;;;;17.58;13.63;;;11.80;99.90;;;;;;4989750;28;20136;-83
2024/03/21 07:58:08;;;;;;;17.02;12.70;;;11.80;99.90;;;;;;4970504;28;20043;-83
2024/03/21 08:00:34;;;;;;;18.35;13.32;;;11.80;99.90;;;;;;4956550;28;20054;-84
2024/03/21 08:03:00;;;;;;;21.88;15.13;;;12.00;99.90;;;;;;4986772;28;20042;-83
2024/03/21 08:05:26;;;;;;;24.50;16.25;;;12.00;99.90;;;;;;4989538;28;20165;-84
2024/03/21 08:07:51;;;;;;;19.50;14.77;;;12.10;99.90;;;;;;4961501;28;20099;-83
2024/03/21 08:10:17;;;;;;;16.92;15.13;;;12.20;99.90;;;;;;4965144;28;20050;-82
2024/03/21 08:12:42;;;;;;;18.38;12.45;;;12.30;99.90;;;;;;4987011;28;20033;-83
2024/03/21 08:15:09;;;;;;;17.95;10.40;;;12.40;99.90;;;;;;4969418;28;20065;-83
2024/03/21 08:17:35;;;;;;;14.80;9.60;;;12.40;99.90;;;;;;4984784;28;20492;-83
2024/03/21 08:20:00;;;;;;;14.98;9.80;;;12.40;99.90;;;;;;4988762;28;20046;-83
2024/03/21 08:22:26;;;;;;;16.27;9.70;;;12.50;99.90;;;;;;4987696;28;20526;-83
2024/03/21 08:24:53;;;;;;;13.70;9.13;;;12.60;99.90;;;;;;4971445;28;20063;-82
2024/03/21 08:27:19;;;;;;;12.55;7.82;;;12.60;99.90;;;;;;4968610;28;20030;-83
2024/03/21 08:29:49;;;;;;;15.65;9.45;;;12.80;99.90;;;;;;4971625;28;20049;-83
2024/03/21 08:32:17;;;;;;;12.73;7.75;;;12.80;99.90;;;;;;4957461;28;20092;-83
2024/03/21 08:34:44;;;;;;;14.07;8.90;;;12.80;99.90;;;;;;4979010;28;20034;-83
2024/03/21 08:37:09;;;;;;;12.00;8.57;;;13.00;99.90;;;;;;4948933;28;20091;-83
2024/03/21 08:39:35;;;;;;;15.65;9.02;;;13.10;99.90;;;;;;4989732;28;20141;-83
2024/03/21 08:42:00;;;;;;;11.15;7.32;;;13.20;99.90;;;;;;4955393;28;20123;-83
2024/03/21 08:44:26;;;;;;;10.40;6.88;;;13.20;99.90;;;;;;4986600;28;20031;-83
2024/03/21 08:46:52;;;;;;;10.65;7.40;;;13.30;99.90;;;;;;4986983;28;20050;-82
2024/03/21 08:49:18;;;;;;;9.45;7.25;;;13.30;99.90;;;;;;4985633;28;20607;-83
2024/03/21 08:51:43;;;;;;;13.73;8.95;;;13.50;99.90;;;;;;4986612;28;20126;-83
2024/03/21 08:54:09;;;;;;;9.48;7.88;;;13.60;99.90;;;;;;4986497;28;20121;-83
2024/03/21 08:56:34;;;;;;;10.95;8.30;;;13.80;99.90;;;;;;4988446;28;20031;-82
2024/03/21 08:59:00;;;;;;;9.27;8.18;;;13.80;99.90;;;;;;4988847;28;20068;-84
2024/03/21 09:01:26;;;;;;;9.77;7.63;;;13.90;99.90;;;;;;4983314;28;20062;-82
2024/03/21 09:03:51;;;;;;;9.52;7.43;;;13.80;99.90;;;;;;4985939;28;21032;-84
2024/03/21 09:06:18;;;;;;;7.78;6.88;;;13.90;99.90;;;;;;4985204;28;20035;-84
2024/03/21 09:08:44;;;;;;;7.85;6.63;;;14.00;99.90;;;;;;4969567;28;20161;-84
2024/03/21 09:11:10;;;;;;;9.20;6.75;;;14.10;99.90;;;;;;4986355;28;20635;-80
2024/03/21 09:13:35;;;;;;;9.23;8.32;;;14.10;99.90;;;;;;5015265;28;20025;-83
2024/03/21 09:16:01;;;;;;;13.43;11.82;;;14.10;99.90;;;;;;4973318;28;20382;-83
2024/03/21 09:18:27;;;;;;;12.52;10.15;;;14.10;99.90;;;;;;4974065;28;20034;-83
2024/03/21 09:20:52;;;;;;;10.18;8.60;;;14.20;99.90;;;;;;4987949;28;20045;-83
2024/03/21 09:23:18;;;;;;;9.63;7.95;;;14.20;99.90;;;;;;4973714;28;20546;-84
2024/03/21 09:25:44;;;;;;;9.15;7.53;;;14.10;99.90;;;;;;4980999;28;20038;-85
2024/03/21 09:28:10;;;;;;;9.00;7.20;;;14.40;99.90;;;;;;4953394;28;20034;-83
2024/03/21 09:30:38;;;;;;;10.30;7.82;;;14.40;99.90;;;;;;4984142;28;20488;-84
2024/03/21 09:33:03;;;;;;;8.40;7.50;;;14.20;99.90;;;;;;4984321;28;20034;-84
2024/03/21 09:35:32;;;;;;;10.18;8.48;;;14.40;99.90;;;;;;4973047;28;20041;-84
2024/03/21 09:37:58;;;;;;;11.27;7.60;;;14.50;99.90;;;;;;4985763;28;20069;-85
2024/03/21 09:40:24;;;;;;;10.50;7.13;;;14.60;99.90;;;;;;4984109;28;20058;-83
2024/03/21 09:42:49;;;;;;;11.50;8.23;;;14.70;99.90;;;;;;4969646;28;20766;-84
2024/03/21 09:45:15;;;;;;;8.43;7.45;;;14.80;99.90;;;;;;4969561;28;20088;-82
2024/03/21 09:47:42;;;;;;;9.75;7.50;;;15.00;99.90;;;;;;5016821;28;20137;-83
2024/03/21 09:50:10;;;;;;;8.07;6.90;;;15.10;99.90;;;;;;4989196;28;20455;-83
2024/03/21 09:52:36;;;;;;;11.13;8.27;;;15.30;99.90;;;;;;4985355;28;20045;-85
2024/03/21 09:55:04;;;;;;;11.52;7.68;;;15.50;99.90;;;;;;4988127;28;20034;-83
2024/03/21 09:57:30;;;;;;;7.50;6.70;;;15.80;99.90;;;;;;4967291;28;20043;-82
2024/03/21 09:59:55;;;;;;;9.98;7.53;;;15.90;99.90;;;;;;4960152;28;20030;-82
2024/03/21 10:02:22;;;;;;;10.80;8.40;;;16.10;99.90;;;;;;4988309;28;20148;-83
2024/03/21 10:04:48;;;;;;;8.75;7.90;;;16.10;99.90;;;;;;4971860;28;20026;-83
2024/03/21 10:07:20;;;;;;;12.30;7.25;;;16.30;99.90;;;;;;4987511;28;20038;-83
2024/03/21 10:09:52;;;;;;;7.75;6.93;;;16.30;99.90;;;;;;4986439;28;20058;-81
2024/03/21 10:12:18;;;;;;;7.05;6.25;;;16.50;99.90;;;;;;4973239;28;20027;-82
2024/03/21 10:14:47;;;;;;;7.57;5.63;;;16.50;99.90;;;;;;4971587;28;20063;-82
2024/03/21 10:17:14;;;;;;;8.18;6.13;;;16.50;99.90;;;;;;4971510;28;20038;-82
2024/03/21 10:19:39;;;;;;;8.40;6.18;;;16.60;99.90;;;;;;4989910;28;20038;-81
2024/03/21 10:22:05;;;;;;;7.32;6.07;;;16.80;99.90;;;;;;4983960;28;20039;-80
2024/03/21 10:24:30;;;;;;;9.63;7.07;;;16.90;99.90;;;;;;4988872;28;20037;-81
2024/03/21 10:26:57;;;;;;;6.32;5.15;;;17.00;99.90;;;;;;4970838;28;20404;-82
2024/03/21 10:29:23;;;;;;;7.15;5.18;;;17.20;99.90;;;;;;4988503;28;20041;-81
2024/03/21 10:31:49;;;;;;;6.43;5.65;;;17.30;99.90;;;;;;4990070;28;20470;-81
2024/03/21 10:34:14;;;;;;;5.97;4.95;;;17.40;99.90;;;;;;4975005;28;20181;-81
2024/03/21 10:36:40;;;;;;;4.80;4.30;;;17.50;99.90;;;;;;4985901;28;20404;-82
2024/03/21 10:39:07;;;;;;;7.07;4.90;;;17.40;99.90;;;;;;4972862;28;20126;-81
2024/03/21 10:41:32;;;;;;;5.57;4.15;;;17.60;99.90;;;;;;4986936;28;20117;-81
2024/03/21 10:44:04;;;;;;;6.03;4.45;;;17.50;99.90;;;;;;4970169;28;20501;-81
2024/03/21 10:46:30;;;;;;;5.40;4.30;;;17.70;99.90;;;;;;4971213;28;20030;-82
2024/03/21 10:48:58;;;;;;;6.90;4.47;;;17.90;99.90;;;;;;4986823;28;20046;-81
2024/03/21 10:51:24;;;;;;;4.75;4.15;;;17.90;99.90;;;;;;4972448;28;20042;-81
2024/03/21 10:53:55;;;;;;;3.67;3.28;;;17.90;99.90;;;;;;4971849;28;20023;-81
2024/03/21 10:56:30;;;;;;;4.78;3.42;;;17.90;99.90;;;;;;4969977;28;20121;-83
2024/03/21 10:58:57;;;;;;;6.00;3.25;;;17.90;99.90;;;;;;4984308;28;20043;-81
2024/03/21 11:01:39;;;;;;;6.70;4.10;;;17.90;99.90;;;;;;4988498;28;20408;-81
2024/03/21 11:04:09;;;;;;;5.13;3.50;;;17.80;99.90;;;;;;4958438;28;20030;-81
2024/03/21 11:06:35;;;;;;;5.32;3.05;;;17.80;99.90;;;;;;4965310;28;20073;-81
2024/03/21 11:09:05;;;;;;;9.05;3.33;;;17.70;99.90;;;;;;4971168;28;20022;-81
2024/03/21 11:11:31;;;;;;;4.90;3.38;;;17.80;99.90;;;;;;4955114;28;20034;-81
2024/03/21 11:14:03;;;;;;;7.95;3.78;;;17.70;99.90;;;;;;4973855;28;20038;-80
2024/03/21 11:16:30;;;;;;;4.50;3.50;;;17.70;99.90;;;;;;4969542;28;20431;-81
2024/03/21 11:18:56;;;;;;;4.38;3.83;;;17.80;99.90;;;;;;4986706;28;20109;-80
2024/03/21 11:21:21;;;;;;;3.28;2.63;;;17.90;99.90;;;;;;4985806;28;20033;-81
2024/03/21 11:23:47;;;;;;;6.45;3.85;;;17.90;99.90;;;;;;4972100;28;20042;-80
2024/03/21 11:26:14;;;;;;;8.32;3.55;;;18.10;99.90;;;;;;4985309;28;20069;-81
2024/03/21 11:28:40;;;;;;;4.90;3.75;;;18.10;99.90;;;;;;4984165;28;20451;-80
2024/03/21 11:31:27;;;;;;;5.97;4.15;;;18.20;99.90;;;;;;4971313;28;20034;-80
2024/03/21 11:33:52;;;;;;;11.10;4.93;;;18.20;99.90;;;;;;4954554;28;20420;-80
2024/03/21 11:36:19;;;;;;;9.57;4.72;;;18.20;99.90;;;;;;4985361;28;20033;-81
2024/03/21 11:38:45;;;;;;;6.07;4.45;;;18.30;99.90;;;;;;4985376;28;20031;-80
2024/03/21 11:41:21;;;;;;;7.95;5.65;;;18.30;99.90;;;;;;4981688;28;20141;-80
2024/03/21 11:43:50;;;;;;;9.57;5.10;;;18.40;99.90;;;;;;4987855;28;20030;-81
2024/03/21 11:46:19;;;;;;;10.80;6.70;;;18.50;99.90;;;;;;4971643;28;20098;-80
2024/03/21 11:49:04;;;;;;;8.18;6.72;;;18.60;99.90;;;;;;4983520;28;20450;-81
2024/03/21 11:51:32;;;;;;;10.13;7.07;;;18.70;99.90;;;;;;4972435;28;20049;-80
2024/03/21 11:54:04;;;;;;;10.23;6.57;;;18.70;99.90;;;;;;4990085;28;20096;-81
2024/03/21 11:56:30;;;;;;;10.57;6.68;;;18.70;99.90;;;;;;4988377;28;20030;-81
2024/03/21 11:58:56;;;;;;;10.77;6.85;;;18.70;99.90;;;;;;4967485;28;20469;-84
2024/03/21 12:01:25;;;;;;;12.30;8.98;;;18.80;99.90;;;;;;4984259;28;20037;-79
2024/03/21 12:03:52;;;;;;;9.85;7.15;;;18.90;99.90;;;;;;4985617;28;20139;-78
2024/03/21 12:06:18;;;;;;;13.25;8.52;;;19.00;99.90;;;;;;4956329;28;20109;-79
2024/03/21 12:08:44;;;;;;;17.58;8.73;;;19.10;99.90;;;;;;4987227;28;20964;-80
2024/03/21 12:11:15;;;;;;;16.33;11.85;;;19.10;99.90;;;;;;4986754;28;20042;-79
2024/03/21 12:13:42;;;;;;;23.02;14.30;;;19.10;99.90;;;;;;4952432;28;20046;-79
2024/03/21 12:16:18;;;;;;;15.38;12.13;;;19.10;99.90;;;;;;4958321;28;20026;-79
2024/03/21 12:18:46;;;;;;;11.98;9.50;;;19.30;99.90;;;;;;4953127;28;20170;-79
2024/03/21 12:21:18;;;;;;;12.52;9.02;;;19.30;99.90;;;;;;4987959;28;20050;-79
2024/03/21 12:23:45;;;;;;;15.35;10.77;;;19.30;99.90;;;;;;4954827;28;20096;-80
2024/03/21 12:26:13;;;;;;;15.75;10.05;;;19.20;99.90;;;;;;4952637;28;20084;-79
2024/03/21 12:28:39;;;;;;;16.25;11.35;;;19.20;99.90;;;;;;4956529;28;20454;-79
2024/03/21 12:31:07;;;;;;;26.00;15.63;;;19.20;99.90;;;;;;4985250;28;20109;-79
2024/03/21 12:33:33;;;;;;;32.42;23.05;;;19.30;99.90;;;;;;4974302;28;20030;-79
2024/03/21 12:35:58;;;;;;;34.28;23.73;;;19.30;99.90;;;;;;4986386;28;20038;-79
2024/03/21 12:38:25;;;;;;;30.85;21.58;;;19.30;99.80;;;;;;4973613;28;20039;-79